This is the latest recevied weather packets stored in our database for station/object DJ3OW-13. If no packets are shown the sender has not sent any weather packets the latest 10 day(s).
| Time | Temp. | Humidity | Pressure | Rain* | Wind** | Luminosity | Snow |
|---|---|---|---|---|---|---|---|
| 1777713639 | 21.11° C | 46% | 1024 hPa | 0 mm | - | - | - |
| 1777713037 | 20.56° C | 46% | 1024 hPa | 0 mm | - | - | - |
| 1777711873 | 20.56° C | 49% | 1024.1 hPa | 0 mm | - | - | - |
| 1777711231 | 20° C | 48% | 1024.1 hPa | 0 mm | - | - | - |
| 1777709425 | 18.89° C | 53% | 1024.2 hPa | 0 mm | - | - | - |
| 1777707639 | 17.22° C | 59% | 1024.3 hPa | 0 mm | - | - | - |
| 1777703465 | 13.33° C | 69% | 1024.3 hPa | 0 mm | - | - | - |
| 1777698649 | 10° C | 75% | 1024.3 hPa | 0 mm | - | - | - |
| 1777696240 | 10° C | 75% | 1024.3 hPa | 0 mm | - | - | - |
| 1777692628 | 10° C | 74% | 1024.6 hPa | 0 mm | - | - | - |
| 1777690822 | 10.56° C | 73% | 1024.8 hPa | 0 mm | - | - | - |
| 1777688474 | 11.11° C | 71% | 1025 hPa | 0 mm | - | - | - |
| 1777686668 | 11.11° C | 70% | 1025.3 hPa | 0 mm | - | - | - |
| 1777681852 | 11.67° C | 69% | 1025.8 hPa | 0 mm | - | - | - |
| 1777657259 | 21.67° C | 39% | 1027.4 hPa | 0 mm | - | - | - |
| 1777642870 | 22.78° C | 36% | 1029.7 hPa | 0 mm | - | - | - |
| 1777641666 | 22.22° C | 38% | 1029.8 hPa | 0 mm | - | - | - |
| 1777641065 | 22.78° C | 39% | 1030 hPa | 0 mm | - | - | - |
| 1777640462 | 22.22° C | 40% | 1030.2 hPa | 0 mm | - | - | - |
| 1777638656 | 21.67° C | 40% | 1030.5 hPa | 0 mm | - | - | - |
| 1777627820 | 18.33° C | 46% | 1031.7 hPa | 0 mm | - | - | - |
| 1777627218 | 17.78° C | 51% | 1031.9 hPa | 0 mm | - | - | - |
| 1777625472 | 16.67° C | 55% | 1032.1 hPa | 0 mm | - | - | - |
| 1777624268 | 16.11° C | 58% | 1032.1 hPa | 0 mm | - | - | - |
| 1777623064 | 14.44° C | 63% | 1032.1 hPa | 0 mm | - | - | - |
* Rain latest hour (hover to see other rain measurements)
** Current wind speed in m/s (hover to see current wind gust speed)